Time;durP1;ratioP1;P1;durP2;ratioP2;P2;SDS_P1;SDS_P2;PMS_P1;PMS_P2;Temp;Humidity;BMP_temperature;BMP_pressure;BME280_temperature;BME280_humidity;BME280_pressure;Samples;Min_cycle;Max_cycle;Signal;HPM_P1;HPM_P2
2022/01/11 00:00:10;;;;;;;57.30;25.20;;;8.00;59.90;;;;;;5061436;28;20478;-88
2022/01/11 00:02:41;;;;;;;42.90;23.20;;;8.10;59.40;;;;;;5057917;28;20472;-88
2022/01/11 00:05:16;;;;;;;44.37;23.30;;;7.90;60.20;;;;;;5049581;28;20882;-88
2022/01/11 00:07:44;;;;;;;38.63;21.57;;;7.90;60.40;;;;;;5072500;28;20463;-88
2022/01/11 00:10:14;;;;;;;42.90;22.70;;;8.00;60.00;;;;;;5066223;28;20472;-89
2022/01/11 00:12:41;;;;;;;75.37;25.80;;;8.10;59.90;;;;;;5080150;28;20459;-88
2022/01/11 00:15:10;;;;;;;46.30;23.40;;;8.10;60.20;;;;;;5076435;28;20502;-88
2022/01/11 00:17:37;;;;;;;48.80;23.00;;;8.10;59.90;;;;;;5082398;28;20479;-88
2022/01/11 00:20:05;;;;;;;47.33;22.47;;;8.20;59.60;;;;;;5075179;28;20469;-88
2022/01/11 00:22:37;;;;;;;51.93;22.27;;;8.30;59.50;;;;;;5078556;28;20452;-88
2022/01/11 00:25:04;;;;;;;49.33;21.13;;;8.20;59.40;;;;;;5059592;28;20538;-87
2022/01/11 00:27:31;;;;;;;40.07;19.17;;;8.00;59.90;;;;;;5072275;28;20549;-87
2022/01/11 00:30:06;;;;;;;112.77;23.77;;;8.10;59.80;;;;;;5064243;28;21235;-88
2022/01/11 00:32:42;;;;;;;41.57;20.07;;;8.00;59.30;;;;;;5080717;28;20456;-88
2022/01/11 00:35:11;;;;;;;116.07;25.00;;;7.70;60.80;;;;;;5043322;28;20453;-88
2022/01/11 00:37:38;;;;;;;43.57;23.07;;;7.70;60.50;;;;;;5056959;28;20789;-87
2022/01/11 00:40:08;;;;;;;46.13;21.50;;;7.60;61.60;;;;;;5048929;28;20845;-87
2022/01/11 00:42:35;;;;;;;52.53;22.13;;;7.80;61.30;;;;;;5048968;28;21145;-86
2022/01/11 00:45:03;;;;;;;46.47;21.67;;;7.70;60.80;;;;;;5050807;28;20851;-88
2022/01/11 00:47:31;;;;;;;40.23;20.27;;;7.70;61.00;;;;;;5077098;28;20540;-88
2022/01/11 00:49:59;;;;;;;33.97;19.00;;;7.90;60.70;;;;;;5054700;28;20475;-89
2022/01/11 00:52:26;;;;;;;31.77;17.03;;;7.90;60.40;;;;;;5061329;28;20455;-87
2022/01/11 00:54:53;;;;;;;31.20;16.87;;;8.00;60.00;;;;;;5076017;28;20920;-87
2022/01/11 00:57:20;;;;;;;28.50;17.13;;;8.00;59.90;;;;;;5049366;28;20461;-86
2022/01/11 00:59:47;;;;;;;32.40;16.60;;;8.00;59.70;;;;;;5078137;28;20471;-86
2022/01/11 01:02:14;;;;;;;32.00;19.30;;;8.00;59.60;;;;;;5080064;28;20454;-88
2022/01/11 01:04:41;;;;;;;39.43;19.07;;;8.00;59.70;;;;;;5048288;28;20467;-87
2022/01/11 01:07:10;;;;;;;30.40;16.83;;;8.10;59.60;;;;;;5056695;28;21169;-87
2022/01/11 01:09:45;;;;;;;27.63;15.70;;;8.20;59.50;;;;;;5057290;28;21019;-87
2022/01/11 01:12:12;;;;;;;32.23;16.80;;;8.10;59.40;;;;;;5058947;28;20455;-86
2022/01/11 01:14:39;;;;;;;32.20;17.87;;;7.90;59.80;;;;;;5059859;28;20562;-87
2022/01/11 01:17:08;;;;;;;31.17;16.53;;;8.00;60.10;;;;;;5061600;28;20458;-88
2022/01/11 01:19:36;;;;;;;32.93;18.27;;;8.10;59.90;;;;;;5048702;28;20586;-88
2022/01/11 01:22:04;;;;;;;36.17;21.10;;;8.20;59.70;;;;;;5058266;28;20577;-87
2022/01/11 01:24:32;;;;;;;34.77;17.13;;;8.10;59.80;;;;;;5081947;28;20562;-89
2022/01/11 01:27:00;;;;;;;37.43;18.10;;;8.10;60.10;;;;;;5068475;28;20467;-87
2022/01/11 01:29:27;;;;;;;42.90;18.33;;;8.00;60.10;;;;;;5061883;28;20541;-87
2022/01/11 01:31:55;;;;;;;34.33;16.80;;;7.90;60.40;;;;;;5081443;28;20453;-88
2022/01/11 01:34:23;;;;;;;31.07;16.23;;;7.80;60.80;;;;;;5050004;28;20483;-88
2022/01/11 01:36:50;;;;;;;37.73;18.77;;;8.00;61.20;;;;;;5048406;28;20450;-88
2022/01/11 01:39:17;;;;;;;36.10;19.23;;;8.10;60.00;;;;;;5052341;28;20571;-87
2022/01/11 01:41:46;;;;;;;35.87;19.47;;;8.10;59.90;;;;;;5065370;28;20817;-89
2022/01/11 01:44:14;;;;;;;43.40;19.30;;;8.00;60.20;;;;;;5054823;28;20533;-87
2022/01/11 01:46:41;;;;;;;49.47;20.80;;;8.00;60.30;;;;;;5063561;28;20460;-88
2022/01/11 01:49:15;;;;;;;43.97;19.60;;;8.10;60.20;;;;;;5064845;28;20475;-88
2022/01/11 01:51:43;;;;;;;49.70;23.00;;;8.10;60.20;;;;;;5082227;28;20470;-87
2022/01/11 01:54:10;;;;;;;45.87;20.70;;;8.00;60.40;;;;;;5068683;28;21456;-88
2022/01/11 01:56:37;;;;;;;52.20;23.10;;;8.00;60.30;;;;;;5066000;28;21228;-88
2022/01/11 01:59:07;;;;;;;34.80;17.53;;;8.00;60.50;;;;;;5045027;28;20464;-87
2022/01/11 02:01:39;;;;;;;32.20;17.10;;;8.00;60.50;;;;;;5060122;28;20457;-89
2022/01/11 02:04:06;;;;;;;32.63;14.40;;;8.10;60.40;;;;;;5053562;28;20459;-88
2022/01/11 02:06:33;;;;;;;32.13;15.67;;;8.20;59.90;;;;;;5028550;28;20463;-88
2022/01/11 02:09:00;;;;;;;38.60;17.23;;;8.20;59.80;;;;;;5051734;28;21005;-88
2022/01/11 02:11:27;;;;;;;29.67;15.80;;;8.10;60.00;;;;;;5068571;28;20487;-87
2022/01/11 02:13:55;;;;;;;28.73;13.90;;;8.20;59.80;;;;;;5063988;28;20459;-88
2022/01/11 02:16:24;;;;;;;32.43;15.70;;;8.20;59.80;;;;;;5048460;28;20456;-87
2022/01/11 02:18:56;;;;;;;37.50;16.00;;;8.00;60.10;;;;;;5062187;28;20479;-88
2022/01/11 02:21:27;;;;;;;38.17;17.83;;;8.00;60.10;;;;;;5066446;28;21039;-90
2022/01/11 02:23:59;;;;;;;23.63;15.77;;;8.00;60.50;;;;;;5042576;28;20456;-88
2022/01/11 02:26:27;;;;;;;29.70;16.20;;;7.90;60.50;;;;;;5049568;28;20459;-88
2022/01/11 02:28:54;;;;;;;28.07;16.90;;;7.90;60.90;;;;;;5066766;28;20464;-88
2022/01/11 02:31:22;;;;;;;29.50;16.30;;;7.80;60.80;;;;;;5053462;28;20451;-87
2022/01/11 02:33:56;;;;;;;32.40;17.20;;;7.70;61.20;;;;;;5068550;28;20463;-89
2022/01/11 02:36:27;;;;;;;26.40;14.07;;;7.90;60.90;;;;;;5063343;28;20451;-88
2022/01/11 02:38:56;;;;;;;28.37;16.23;;;8.00;60.30;;;;;;5057072;28;20480;-88
2022/01/11 02:41:27;;;;;;;33.73;16.37;;;8.10;59.80;;;;;;5064679;28;20469;-90
2022/01/11 02:43:58;;;;;;;37.30;16.50;;;8.10;59.70;;;;;;5038659;28;20560;-88
2022/01/11 02:46:28;;;;;;;30.27;15.50;;;8.20;59.60;;;;;;5043548;28;20449;-88
2022/01/11 02:48:57;;;;;;;31.23;17.57;;;8.30;59.50;;;;;;5058153;28;20488;-89
2022/01/11 02:51:29;;;;;;;25.27;14.63;;;8.30;59.50;;;;;;5065650;28;20451;-90
2022/01/11 02:54:00;;;;;;;30.13;15.03;;;8.20;59.70;;;;;;5064428;28;20453;-86
2022/01/11 02:56:28;;;;;;;29.57;15.27;;;8.20;59.70;;;;;;5051616;28;20452;-88
2022/01/11 02:58:56;;;;;;;30.27;14.33;;;8.20;59.70;;;;;;5060639;28;20468;-88
2022/01/11 03:01:23;;;;;;;26.00;14.67;;;8.20;59.70;;;;;;5050110;28;20488;-87
2022/01/11 03:03:51;;;;;;;22.43;14.47;;;8.20;59.70;;;;;;5046108;28;20456;-87
2022/01/11 03:06:19;;;;;;;22.03;12.40;;;8.30;59.50;;;;;;5047407;28;20468;-88
2022/01/11 03:08:48;;;;;;;22.20;12.93;;;8.30;59.30;;;;;;5030625;28;20470;-87
2022/01/11 03:11:21;;;;;;;23.10;13.30;;;8.30;59.20;;;;;;5067201;28;20460;-89
2022/01/11 03:13:50;;;;;;;25.30;13.33;;;8.40;59.20;;;;;;5062776;28;20449;-87
2022/01/11 03:16:18;;;;;;;20.63;12.90;;;8.30;59.10;;;;;;5042783;28;20522;-89
2022/01/11 03:18:46;;;;;;;20.80;12.70;;;8.30;59.70;;;;;;5061147;28;20499;-88
2022/01/11 03:21:15;;;;;;;23.87;13.07;;;8.20;59.40;;;;;;5046354;28;20543;-87
2022/01/11 03:23:42;;;;;;;28.63;14.93;;;8.10;59.70;;;;;;5062004;28;20443;-88
2022/01/11 03:26:12;;;;;;;19.30;12.30;;;8.10;60.10;;;;;;5061116;28;20845;-88
2022/01/11 03:28:40;;;;;;;29.70;15.47;;;8.10;59.80;;;;;;5041163;28;20480;-88
2022/01/11 03:31:08;;;;;;;24.53;14.20;;;8.20;59.80;;;;;;5046460;28;20487;-88
2022/01/11 03:33:44;;;;;;;28.33;13.60;;;8.20;59.60;;;;;;5059002;28;20455;-89
2022/01/11 03:36:11;;;;;;;24.97;13.20;;;8.10;59.80;;;;;;5064198;28;20935;-89
2022/01/11 03:38:38;;;;;;;26.67;14.33;;;8.10;59.90;;;;;;5063372;28;20483;-88
2022/01/11 03:41:13;;;;;;;25.80;13.60;;;8.10;59.90;;;;;;5043767;28;20452;-87
2022/01/11 03:43:40;;;;;;;21.37;13.40;;;8.00;60.10;;;;;;5064645;28;20582;-88
2022/01/11 03:46:11;;;;;;;27.97;12.90;;;8.10;60.20;;;;;;5047674;28;20464;-88
2022/01/11 03:48:38;;;;;;;24.47;13.07;;;8.00;60.30;;;;;;5066534;28;20491;-88
2022/01/11 03:51:06;;;;;;;22.23;12.63;;;8.00;60.10;;;;;;5078201;28;20453;-88
2022/01/11 03:53:52;;;;;;;28.53;14.53;;;8.10;60.20;;;;;;5050513;28;20819;-89
2022/01/11 03:56:22;;;;;;;28.53;13.27;;;8.00;60.20;;;;;;5039945;28;20448;-85
2022/01/11 03:58:55;;;;;;;27.57;13.57;;;8.10;60.00;;;;;;5065252;28;20471;-88
2022/01/11 04:01:23;;;;;;;19.90;12.07;;;8.20;60.10;;;;;;5060193;28;20456;-88
2022/01/11 04:03:50;;;;;;;23.67;13.83;;;8.20;59.80;;;;;;5040347;28;20991;-87
2022/01/11 04:06:17;;;;;;;18.10;12.20;;;8.30;59.50;;;;;;5048233;28;20465;-88
2022/01/11 04:08:45;;;;;;;21.60;11.47;;;8.30;59.20;;;;;;5054374;28;20471;-88
2022/01/11 04:11:13;;;;;;;19.30;10.23;;;8.30;59.30;;;;;;5055001;28;20459;-87
2022/01/11 04:13:42;;;;;;;16.77;11.20;;;8.20;59.30;;;;;;5061777;28;20531;-87
2022/01/11 04:16:10;;;;;;;19.93;9.37;;;8.20;59.30;;;;;;5049066;28;20458;-87
2022/01/11 04:18:37;;;;;;;15.00;9.30;;;8.30;59.30;;;;;;5027659;28;20476;-87
2022/01/11 04:21:05;;;;;;;13.40;8.57;;;8.30;59.10;;;;;;5064383;28;20516;-89
2022/01/11 04:23:35;;;;;;;18.60;10.07;;;8.20;59.00;;;;;;5075518;28;20971;-88
2022/01/11 04:26:03;;;;;;;14.97;9.30;;;8.20;59.00;;;;;;5061759;28;21013;-87
2022/01/11 04:28:35;;;;;;;18.43;10.20;;;8.20;59.20;;;;;;5062420;28;20483;-87
2022/01/11 04:31:06;;;;;;;19.70;11.07;;;8.30;59.10;;;;;;5065899;28;21018;-88
2022/01/11 04:33:35;;;;;;;23.17;11.13;;;8.30;58.90;;;;;;5068549;28;20472;-88
2022/01/11 04:36:03;;;;;;;20.37;11.47;;;8.40;58.70;;;;;;5051348;28;20543;-87
2022/01/11 04:38:32;;;;;;;18.80;10.50;;;8.40;58.70;;;;;;5062522;28;20457;-88
2022/01/11 04:41:00;;;;;;;25.20;10.73;;;8.40;58.60;;;;;;5050115;28;20476;-88
2022/01/11 04:43:31;;;;;;;21.60;10.17;;;8.40;58.40;;;;;;5065576;28;20453;-88
2022/01/11 04:45:58;;;;;;;18.30;9.97;;;8.40;58.60;;;;;;5057382;28;20476;-87
2022/01/11 04:48:29;;;;;;;16.80;9.60;;;8.40;58.60;;;;;;5054111;28;20461;-85
2022/01/11 04:50:56;;;;;;;18.10;10.17;;;8.40;58.60;;;;;;5063636;28;21070;-88
2022/01/11 04:53:23;;;;;;;17.40;10.47;;;8.40;58.50;;;;;;5027885;28;20486;-88
2022/01/11 04:55:50;;;;;;;23.53;11.17;;;8.40;58.40;;;;;;5048799;28;20487;-88
2022/01/11 04:58:19;;;;;;;15.93;9.77;;;8.40;58.40;;;;;;5051736;28;20478;-88
2022/01/11 05:00:46;;;;;;;17.80;9.97;;;8.40;58.40;;;;;;5057025;28;20457;-86
2022/01/11 05:03:13;;;;;;;19.43;12.47;;;8.40;58.50;;;;;;5054404;28;20448;-87
2022/01/11 05:05:43;;;;;;;17.83;9.30;;;8.30;58.70;;;;;;5061189;28;20475;-85
2022/01/11 05:08:10;;;;;;;21.53;11.10;;;8.30;58.80;;;;;;5064861;28;20452;-88
2022/01/11 05:10:42;;;;;;;22.90;11.83;;;8.20;58.80;;;;;;5073698;28;20491;-89
2022/01/11 05:13:11;;;;;;;17.07;9.20;;;8.30;58.90;;;;;;5043635;28;21140;-88
2022/01/11 05:15:38;;;;;;;17.07;10.13;;;8.30;58.70;;;;;;5055070;28;20475;-88
2022/01/11 05:18:07;;;;;;;18.47;10.50;;;8.30;58.80;;;;;;5070715;28;20515;-88
2022/01/11 05:20:35;;;;;;;16.37;10.83;;;8.30;59.00;;;;;;5044438;28;20476;-88
2022/01/11 05:23:04;;;;;;;16.30;9.77;;;8.30;58.90;;;;;;5067468;28;20452;-88
2022/01/11 05:25:31;;;;;;;16.77;9.77;;;8.20;59.00;;;;;;5067101;28;20504;-87
2022/01/11 05:27:59;;;;;;;24.00;10.47;;;8.20;59.20;;;;;;5035574;28;20448;-88
2022/01/11 05:30:27;;;;;;;21.57;11.00;;;8.30;59.00;;;;;;5046558;28;20492;-88
2022/01/11 05:32:54;;;;;;;21.90;10.53;;;8.30;58.90;;;;;;5053550;28;20546;-88
2022/01/11 05:35:23;;;;;;;16.37;10.20;;;8.40;58.80;;;;;;5051049;28;20443;-86
2022/01/11 05:37:52;;;;;;;14.90;9.43;;;8.40;58.70;;;;;;5065502;28;20452;-88
2022/01/11 05:40:21;;;;;;;17.23;10.57;;;8.30;58.90;;;;;;5035885;28;20479;-87
2022/01/11 05:42:51;;;;;;;21.27;9.13;;;8.30;58.80;;;;;;5070233;28;20449;-88
2022/01/11 05:45:20;;;;;;;18.33;11.10;;;8.40;58.60;;;;;;5066270;28;20722;-87
2022/01/11 05:47:52;;;;;;;29.80;14.00;;;8.40;58.50;;;;;;5046466;28;20468;-88
2022/01/11 05:50:20;;;;;;;23.37;13.83;;;8.40;58.50;;;;;;5069781;28;20484;-89
2022/01/11 05:52:49;;;;;;;26.43;12.40;;;8.40;58.60;;;;;;5066835;28;20439;-88
2022/01/11 05:55:17;;;;;;;20.33;11.70;;;8.40;58.50;;;;;;5068636;28;20452;-88
2022/01/11 05:57:45;;;;;;;27.23;14.03;;;8.40;58.60;;;;;;5064539;28;20562;-87
2022/01/11 06:00:16;;;;;;;26.73;13.27;;;8.40;58.70;;;;;;5063268;28;20511;-89
2022/01/11 06:02:48;;;;;;;23.83;11.33;;;8.40;58.60;;;;;;5079643;28;20974;-88
2022/01/11 06:05:24;;;;;;;24.10;11.30;;;8.40;59.30;;;;;;5046548;28;20479;-88
2022/01/11 06:07:52;;;;;;;17.70;9.20;;;8.40;58.60;;;;;;5049584;28;20944;-87
2022/01/11 06:10:20;;;;;;;20.37;11.20;;;8.40;58.60;;;;;;5062811;28;20983;-88
2022/01/11 06:12:50;;;;;;;21.67;10.40;;;8.40;58.60;;;;;;5048952;28;20459;-88
2022/01/11 06:15:17;;;;;;;18.30;10.20;;;8.40;58.60;;;;;;5049531;28;20466;-88
2022/01/11 06:17:44;;;;;;;17.13;9.07;;;8.40;58.50;;;;;;5067398;28;20497;-88
2022/01/11 06:20:12;;;;;;;17.27;10.17;;;8.50;58.60;;;;;;5061198;28;20543;-87
2022/01/11 06:22:41;;;;;;;23.50;10.23;;;8.30;58.70;;;;;;5059628;28;20454;-87
2022/01/11 06:25:09;;;;;;;17.77;9.80;;;8.30;59.00;;;;;;5058091;28;20467;-87
2022/01/11 06:27:39;;;;;;;15.80;9.40;;;8.30;58.90;;;;;;5046289;28;20591;-87
2022/01/11 06:30:10;;;;;;;19.03;9.27;;;8.40;58.70;;;;;;5038689;28;20563;-87
2022/01/11 06:32:39;;;;;;;16.63;8.83;;;8.40;58.60;;;;;;5063938;28;20464;-88
2022/01/11 06:35:08;;;;;;;17.03;10.90;;;8.40;58.60;;;;;;5062130;28;20463;-88
2022/01/11 06:37:36;;;;;;;18.67;10.07;;;8.40;58.50;;;;;;5058600;28;21061;-90
2022/01/11 06:40:04;;;;;;;18.17;10.17;;;8.40;58.50;;;;;;5066812;28;20480;-87
2022/01/11 06:42:32;;;;;;;14.33;10.10;;;8.50;59.20;;;;;;5064267;28;20478;-87
2022/01/11 06:45:00;;;;;;;19.00;9.60;;;8.30;58.80;;;;;;5040680;28;20471;-86
2022/01/11 06:47:28;;;;;;;20.17;10.70;;;8.30;58.80;;;;;;5057854;28;20544;-87
2022/01/11 06:49:56;;;;;;;18.80;10.60;;;8.30;59.00;;;;;;5053140;28;20484;-87
2022/01/11 06:52:24;;;;;;;19.87;10.30;;;8.40;58.90;;;;;;5061519;28;20526;-87
2022/01/11 06:54:52;;;;;;;21.67;12.07;;;8.40;58.60;;;;;;5054772;28;20499;-87
2022/01/11 06:57:20;;;;;;;19.80;10.83;;;8.40;58.50;;;;;;5052067;28;20460;-88
2022/01/11 06:59:47;;;;;;;16.37;10.37;;;8.40;58.60;;;;;;5049923;28;20480;-87
2022/01/11 07:02:19;;;;;;;20.90;12.10;;;8.50;58.70;;;;;;5036483;28;20459;-88
2022/01/11 07:05:02;;;;;;;17.23;10.37;;;8.50;58.80;;;;;;5070710;28;20476;-86
2022/01/11 07:07:29;;;;;;;17.40;10.67;;;8.50;58.70;;;;;;5053120;28;20456;-88
2022/01/11 07:09:56;;;;;;;14.03;9.10;;;8.50;58.60;;;;;;5043223;28;20486;-86
2022/01/11 07:12:24;;;;;;;16.87;9.57;;;8.50;58.60;;;;;;5054161;28;20468;-87
2022/01/11 07:14:51;;;;;;;15.47;9.10;;;8.50;58.50;;;;;;5052500;28;20573;-88
2022/01/11 07:17:20;;;;;;;15.53;10.70;;;8.50;58.60;;;;;;5067489;28;21189;-88
2022/01/11 07:19:47;;;;;;;24.17;12.90;;;8.50;58.60;;;;;;5064269;28;20486;-88
2022/01/11 07:22:18;;;;;;;18.73;10.53;;;8.50;58.70;;;;;;5062874;28;20462;-87
2022/01/11 07:24:46;;;;;;;16.05;9.95;;;8.50;58.60;;;;;;5053600;28;21165;-87
2022/01/11 07:27:14;;;;;;;29.20;10.77;;;8.50;58.60;;;;;;5054918;28;20455;-87
2022/01/11 07:29:42;;;;;;;24.50;10.83;;;8.50;58.60;;;;;;5059779;28;21174;-88
2022/01/11 07:32:09;;;;;;;15.77;10.33;;;8.60;58.70;;;;;;5057614;28;21017;-87
2022/01/11 07:34:36;;;;;;;21.57;10.27;;;8.50;58.70;;;;;;5055912;28;20567;-88
2022/01/11 07:37:04;;;;;;;18.10;10.57;;;8.50;58.70;;;;;;5069258;28;20551;-88
2022/01/11 07:39:34;;;;;;;14.83;9.33;;;8.50;58.90;;;;;;5060379;28;20475;-87
2022/01/11 07:42:01;;;;;;;23.53;9.43;;;8.50;58.90;;;;;;5058121;28;20496;-87
2022/01/11 07:44:51;;;;;;;15.60;9.23;;;8.50;58.80;;;;;;5071563;28;20463;-87
2022/01/11 07:47:18;;;;;;;21.77;10.00;;;8.60;58.90;;;;;;5065614;28;21236;-89
2022/01/11 07:49:48;;;;;;;16.90;9.77;;;8.60;58.90;;;;;;5055342;28;20481;-87
2022/01/11 07:52:15;;;;;;;17.43;9.67;;;8.60;59.50;;;;;;5055200;28;20460;-88
2022/01/11 07:54:46;;;;;;;16.20;10.10;;;8.60;58.90;;;;;;5053175;28;20610;-89
2022/01/11 07:57:16;;;;;;;20.17;10.47;;;8.60;58.80;;;;;;5039076;28;20459;-88
2022/01/11 07:59:43;;;;;;;26.77;12.33;;;8.60;58.80;;;;;;5045196;28;20487;-87
2022/01/11 08:02:13;;;;;;;24.03;13.80;;;8.60;58.70;;;;;;5055738;28;20460;-88
2022/01/11 08:04:40;;;;;;;27.90;14.00;;;8.60;58.80;;;;;;5061509;28;20566;-87
2022/01/11 08:07:07;;;;;;;26.13;15.37;;;8.60;58.80;;;;;;5053991;28;20472;-88
2022/01/11 08:09:51;;;;;;;28.80;14.10;;;8.70;58.90;;;;;;5058081;28;20558;-85
2022/01/11 08:12:19;;;;;;;23.13;14.40;;;8.70;58.80;;;;;;5059240;28;20978;-87
2022/01/11 08:14:48;;;;;;;25.70;14.70;;;8.70;58.70;;;;;;5055167;28;20471;-87
2022/01/11 08:17:15;;;;;;;30.23;17.30;;;8.70;58.80;;;;;;5057264;28;20444;-87
2022/01/11 08:19:44;;;;;;;29.33;17.00;;;8.70;58.80;;;;;;5062772;28;20578;-87
2022/01/11 08:22:12;;;;;;;33.67;16.60;;;8.70;58.90;;;;;;5063023;28;20456;-87
2022/01/11 08:24:48;;;;;;;21.30;13.50;;;8.50;59.10;;;;;;5055937;28;20502;-87
2022/01/11 08:27:19;;;;;;;25.03;14.93;;;8.40;59.50;;;;;;5058255;28;20565;-88
2022/01/11 08:29:47;;;;;;;20.53;13.10;;;8.40;59.80;;;;;;5058877;28;20471;-86
2022/01/11 08:32:14;;;;;;;17.47;11.60;;;8.50;59.60;;;;;;5079240;28;20958;-88
2022/01/11 08:34:42;;;;;;;17.27;10.20;;;8.50;59.60;;;;;;5046023;28;20538;-89
2022/01/11 08:37:10;;;;;;;19.37;12.10;;;8.40;59.70;;;;;;5046893;28;20462;-89
2022/01/11 08:39:38;;;;;;;17.73;10.60;;;8.50;59.70;;;;;;5086194;28;20529;-88
2022/01/11 08:42:06;;;;;;;19.13;9.60;;;8.50;59.60;;;;;;5060092;28;20472;-89
2022/01/11 08:44:35;;;;;;;20.63;9.90;;;8.50;59.70;;;;;;5052285;28;20462;-89
2022/01/11 08:47:03;;;;;;;20.13;12.47;;;8.40;59.80;;;;;;5042574;28;20559;-88
2022/01/11 08:49:36;;;;;;;20.20;11.83;;;8.50;59.60;;;;;;5067946;28;20475;-87
2022/01/11 08:52:04;;;;;;;22.33;13.30;;;8.50;59.50;;;;;;5063114;28;20562;-88
2022/01/11 08:54:32;;;;;;;29.50;14.00;;;8.60;59.50;;;;;;5050883;28;20491;-90
2022/01/11 08:57:01;;;;;;;19.40;14.10;;;8.60;59.40;;;;;;5055161;28;20457;-89
2022/01/11 08:59:28;;;;;;;22.70;13.57;;;8.70;59.50;;;;;;5063021;28;20505;-91
2022/01/11 09:02:01;;;;;;;20.17;13.13;;;8.70;59.40;;;;;;5041265;28;20472;-90
2022/01/11 09:04:29;;;;;;;22.63;10.70;;;8.70;59.40;;;;;;5032669;28;20508;-88
2022/01/11 09:07:05;;;;;;;23.87;11.43;;;8.70;59.60;;;;;;5063054;28;20503;-87
2022/01/11 09:09:32;;;;;;;23.90;12.83;;;8.70;59.50;;;;;;5060693;28;20566;-88
2022/01/11 09:12:05;;;;;;;17.63;11.53;;;8.60;59.70;;;;;;5062354;28;20487;-89
2022/01/11 09:14:34;;;;;;;21.10;11.43;;;8.50;59.90;;;;;;5063949;28;21044;-87
2022/01/11 09:17:03;;;;;;;17.80;11.00;;;8.40;60.20;;;;;;5060883;28;20455;-86
2022/01/11 09:19:33;;;;;;;23.13;10.63;;;8.40;60.50;;;;;;5045381;28;20506;-89
2022/01/11 09:22:01;;;;;;;16.43;10.17;;;8.60;60.40;;;;;;5068320;28;20455;-88
2022/01/11 09:24:30;;;;;;;15.23;9.30;;;8.60;60.10;;;;;;5064001;28;20449;-88
2022/01/11 09:26:59;;;;;;;20.13;12.07;;;8.30;60.50;;;;;;5064818;28;20528;-89
2022/01/11 09:29:29;;;;;;;20.43;11.40;;;8.40;60.80;;;;;;5057914;28;20508;-89
2022/01/11 09:31:57;;;;;;;21.70;10.67;;;8.30;60.60;;;;;;5047664;28;20464;-88
2022/01/11 09:34:28;;;;;;;15.83;9.50;;;8.30;61.40;;;;;;5057533;28;20495;-88
2022/01/11 09:36:57;;;;;;;16.13;10.73;;;8.40;60.80;;;;;;5066040;28;20450;-91
2022/01/11 09:39:25;;;;;;;21.13;9.50;;;8.50;60.60;;;;;;5048342;28;20945;-89
2022/01/11 09:41:53;;;;;;;14.20;9.33;;;8.50;60.40;;;;;;5060256;28;20510;-86
2022/01/11 09:44:23;;;;;;;21.27;10.07;;;8.40;60.80;;;;;;5050484;28;21192;-89
2022/01/11 09:46:51;;;;;;;16.83;9.43;;;8.40;60.80;;;;;;5044966;28;20970;-89
2022/01/11 09:49:18;;;;;;;22.77;11.40;;;8.40;61.10;;;;;;5046399;28;20480;-90
2022/01/11 09:51:49;;;;;;;14.60;9.00;;;8.60;60.70;;;;;;5049210;28;20578;-88
2022/01/11 09:54:19;;;;;;;14.13;10.00;;;8.80;60.10;;;;;;5063197;28;20963;-90
2022/01/11 09:56:47;;;;;;;14.83;10.13;;;8.90;59.60;;;;;;5048655;28;20505;-90
2022/01/11 09:59:18;;;;;;;22.20;10.50;;;9.00;59.40;;;;;;5053878;28;20475;-89
2022/01/11 10:02:13;;;;;;;19.77;12.03;;;9.00;59.30;;;;;;5024777;28;20510;-91
2022/01/11 10:04:56;;;;;;;20.40;11.73;;;9.00;59.20;;;;;;5052357;28;20494;-92
2022/01/11 10:07:35;;;;;;;26.43;16.80;;;9.10;59.00;;;;;;5040478;28;20500;-91
2022/01/11 10:10:03;;;;;;;18.00;11.87;;;8.80;59.10;;;;;;5024689;28;20476;-90
2022/01/11 10:12:42;;;;;;;25.43;13.80;;;8.60;59.80;;;;;;5039497;28;20448;-90
2022/01/11 10:15:10;;;;;;;17.20;10.20;;;8.70;60.00;;;;;;5059511;28;20460;-90
2022/01/11 10:17:40;;;;;;;18.60;10.97;;;8.90;59.70;;;;;;5061069;28;20452;-90
2022/01/11 10:20:10;;;;;;;18.17;10.30;;;8.90;59.70;;;;;;5049904;28;20469;-90
2022/01/11 10:22:53;;;;;;;14.30;9.80;;;8.90;59.90;;;;;;5042327;28;20459;-92
2022/01/11 10:25:20;;;;;;;17.47;10.57;;;9.10;59.60;;;;;;5041176;28;21023;-93
2022/01/11 10:27:56;;;;;;;15.33;9.90;;;9.20;59.40;;;;;;5025394;28;21003;-91
2022/01/11 10:30:26;;;;;;;14.60;9.20;;;9.20;59.00;;;;;;5031941;28;20471;-91
2022/01/11 10:33:04;;;;;;;19.83;9.97;;;9.20;58.90;;;;;;5022900;28;20451;-92
2022/01/11 10:35:42;;;;;;;24.10;9.87;;;9.00;59.00;;;;;;5057274;28;20509;-90
2022/01/11 10:38:15;;;;;;;16.83;10.33;;;9.10;59.30;;;;;;5034048;28;20460;-90
2022/01/11 10:40:44;;;;;;;20.80;11.00;;;9.20;59.30;;;;;;5043302;28;20562;-89
2022/01/11 10:43:15;;;;;;;17.80;10.07;;;9.20;59.10;;;;;;5024930;28;20460;-91
2022/01/11 10:45:44;;;;;;;16.40;11.03;;;9.20;59.20;;;;;;5042240;28;20828;-90
2022/01/11 10:48:14;;;;;;;16.20;9.90;;;9.40;59.10;;;;;;5057969;28;20963;-91
2022/01/11 10:50:44;;;;;;;12.47;8.33;;;9.60;58.80;;;;;;5055325;28;20820;-91
2022/01/11 10:53:16;;;;;;;14.43;8.60;;;9.60;58.50;;;;;;5039195;28;20500;-91
2022/01/11 10:55:45;;;;;;;12.30;8.40;;;9.70;58.10;;;;;;5031146;28;20452;-91
2022/01/11 10:58:13;;;;;;;20.33;9.53;;;9.60;58.30;;;;;;5030818;28;20551;-90
2022/01/11 11:00:45;;;;;;;23.27;9.97;;;9.70;58.40;;;;;;5053724;28;20476;-91
2022/01/11 11:03:15;;;;;;;19.43;10.40;;;9.70;58.30;;;;;;5030955;28;20594;-90
2022/01/11 11:05:48;;;;;;;19.37;11.50;;;9.80;58.30;;;;;;5043100;28;20460;-90
2022/01/11 11:08:26;;;;;;;16.10;8.30;;;10.00;57.30;;;;;;5028079;28;20895;-91
2022/01/11 11:11:11;;;;;;;18.17;10.17;;;10.00;57.20;;;;;;5046386;28;20524;-91
2022/01/11 11:13:42;;;;;;;16.50;10.40;;;9.90;57.90;;;;;;5039563;28;20463;-90
2022/01/11 11:16:12;;;;;;;17.43;9.30;;;9.80;58.40;;;;;;5029664;28;20868;-90
2022/01/11 11:18:42;;;;;;;15.13;9.70;;;9.80;58.20;;;;;;5027348;28;20969;-90
2022/01/11 11:21:17;;;;;;;15.83;8.47;;;9.80;58.30;;;;;;5057919;28;20459;-90
2022/01/11 11:23:47;;;;;;;13.00;8.30;;;9.90;58.10;;;;;;5057187;28;20533;-91
2022/01/11 11:26:15;;;;;;;13.47;8.00;;;9.90;58.10;;;;;;5038888;28;20538;-92
2022/01/11 11:28:42;;;;;;;14.23;8.60;;;10.00;57.30;;;;;;5041063;28;20477;-91
2022/01/11 11:31:10;;;;;;;16.27;8.97;;;10.00;56.90;;;;;;5074868;28;20484;-90
2022/01/11 11:33:38;;;;;;;12.77;8.37;;;9.90;58.00;;;;;;5072546;28;20463;-91
2022/01/11 11:36:06;;;;;;;11.90;8.87;;;9.90;58.10;;;;;;5074667;28;20458;-90
2022/01/11 11:38:37;;;;;;;20.23;9.73;;;10.00;57.30;;;;;;5054732;28;20456;-92
2022/01/11 11:41:06;;;;;;;18.70;8.97;;;9.90;58.20;;;;;;5057320;28;20448;-92
2022/01/11 11:43:33;;;;;;;11.80;8.53;;;9.70;58.50;;;;;;5028863;28;20466;-91
2022/01/11 11:46:00;;;;;;;11.63;8.47;;;9.60;59.00;;;;;;5070982;28;20485;-92
2022/01/11 11:48:29;;;;;;;19.13;8.60;;;9.70;58.90;;;;;;5057475;28;20546;-89
2022/01/11 11:50:59;;;;;;;15.27;9.10;;;9.90;58.80;;;;;;5039634;28;20551;-91
2022/01/11 11:53:29;;;;;;;16.73;8.70;;;10.00;57.60;;;;;;5041895;28;20728;-90
2022/01/11 11:56:23;;;;;;;12.93;8.67;;;10.10;58.20;;;;;;5037455;28;20460;-91
2022/01/11 11:58:52;;;;;;;16.80;9.53;;;10.10;57.70;;;;;;5012359;28;20889;-91
2022/01/11 12:01:41;;;;;;;18.80;8.27;;;10.10;58.20;;;;;;5052490;28;20463;-92
2022/01/11 12:04:10;;;;;;;10.57;6.43;;;10.10;57.40;;;;;;5062548;28;20929;-91
2022/01/11 12:06:37;;;;;;;12.40;8.70;;;10.00;57.40;;;;;;5033466;28;20551;-91
2022/01/11 12:09:07;;;;;;;15.77;9.90;;;10.10;57.60;;;;;;5045980;28;20487;-92
2022/01/11 12:11:37;;;;;;;14.47;7.87;;;10.10;57.90;;;;;;5054309;28;20575;-90
2022/01/11 12:14:05;;;;;;;13.73;7.77;;;10.20;57.80;;;;;;5044505;28;20494;-91
2022/01/11 12:16:50;;;;;;;16.07;9.60;;;10.20;57.30;;;;;;5056451;28;20694;-91
2022/01/11 12:19:40;;;;;;;11.53;7.07;;;10.20;57.10;;;;;;5055596;28;20483;-91
2022/01/11 12:22:19;;;;;;;8.60;6.30;;;10.20;57.10;;;;;;5024704;28;20456;-93
2022/01/11 12:24:48;;;;;;;12.63;7.50;;;9.90;58.00;;;;;;5072944;28;20480;-90
2022/01/11 12:27:22;;;;;;;14.03;7.30;;;10.10;57.10;;;;;;5046189;28;20468;-91
2022/01/11 12:29:57;;;;;;;12.03;7.20;;;10.30;56.80;;;;;;5054550;28;20472;-90
2022/01/11 12:32:26;;;;;;;11.83;6.40;;;10.20;56.80;;;;;;5054895;28;20456;-92
2022/01/11 12:35:21;;;;;;;11.23;6.87;;;10.20;56.80;;;;;;5053613;28;20739;-93
2022/01/11 12:37:48;;;;;;;9.07;6.50;;;10.10;57.20;;;;;;5021320;28;20466;-91
2022/01/11 12:40:26;;;;;;;8.80;6.13;;;10.30;56.90;;;;;;5045588;28;20555;-90
2022/01/11 12:43:02;;;;;;;10.40;6.90;;;10.40;56.50;;;;;;5047736;28;20487;-88
2022/01/11 12:45:55;;;;;;;15.93;6.80;;;10.40;56.10;;;;;;5065214;28;20482;-91
2022/01/11 12:49:11;;;;;;;9.90;6.07;;;10.40;56.20;;;;;;5057135;28;20584;-89
2022/01/11 12:51:48;;;;;;;7.40;6.03;;;10.50;56.10;;;;;;5079296;28;20475;-89